sensor_id;sensor_type;location;lat;lon;timestamp;temperature;humidity
26182;DHT22;13927;51.534;11.866;2022-08-01T00:01:03;20.40;99.90
26182;DHT22;13927;51.534;11.866;2022-08-01T00:03:29;20.40;99.90
26182;DHT22;13927;51.534;11.866;2022-08-01T00:05:55;20.40;99.90
26182;DHT22;13927;51.534;11.866;2022-08-01T00:08:21;20.40;99.90
26182;DHT22;13927;51.534;11.866;2022-08-01T00:10:47;20.40;99.90
26182;DHT22;13927;51.534;11.866;2022-08-01T00:13:14;20.30;99.90
26182;DHT22;13927;51.534;11.866;2022-08-01T00:15:39;20.30;99.90
26182;DHT22;13927;51.534;11.866;2022-08-01T00:18:05;20.30;99.90
26182;DHT22;13927;51.534;11.866;2022-08-01T00:20:31;20.30;99.90
26182;DHT22;13927;51.534;11.866;2022-08-01T00:22:58;20.40;99.90
26182;DHT22;13927;51.534;11.866;2022-08-01T00:25:24;20.40;99.90
26182;DHT22;13927;51.534;11.866;2022-08-01T00:27:50;20.40;99.90
26182;DHT22;13927;51.534;11.866;2022-08-01T00:30:15;20.40;99.90
26182;DHT22;13927;51.534;11.866;2022-08-01T00:32:42;20.30;99.90
26182;DHT22;13927;51.534;11.866;2022-08-01T00:35:09;20.20;99.90
26182;DHT22;13927;51.534;11.866;2022-08-01T00:37:35;20.20;99.90
26182;DHT22;13927;51.534;11.866;2022-08-01T00:40:01;20.20;99.90
26182;DHT22;13927;51.534;11.866;2022-08-01T00:42:28;20.20;99.90
26182;DHT22;13927;51.534;11.866;2022-08-01T00:44:54;20.20;99.90
26182;DHT22;13927;51.534;11.866;2022-08-01T00:47:20;20.20;99.90
26182;DHT22;13927;51.534;11.866;2022-08-01T00:49:47;20.20;99.90
26182;DHT22;13927;51.534;11.866;2022-08-01T00:52:13;20.20;99.90
26182;DHT22;13927;51.534;11.866;2022-08-01T00:54:39;20.20;99.90
26182;DHT22;13927;51.534;11.866;2022-08-01T00:57:05;20.20;99.90
26182;DHT22;13927;51.534;11.866;2022-08-01T00:59:32;20.30;99.90
26182;DHT22;13927;51.534;11.866;2022-08-01T01:01:59;20.30;99.90
26182;DHT22;13927;51.534;11.866;2022-08-01T01:04:25;20.30;99.90
26182;DHT22;13927;51.534;11.866;2022-08-01T01:07:13;20.30;99.90
26182;DHT22;13927;51.534;11.866;2022-08-01T01:09:52;20.30;99.90
26182;DHT22;13927;51.534;11.866;2022-08-01T01:12:59;20.20;99.90
26182;DHT22;13927;51.534;11.866;2022-08-01T01:15:47;20.20;99.90
26182;DHT22;13927;51.534;11.866;2022-08-01T01:18:33;20.20;99.90
26182;DHT22;13927;51.534;11.866;2022-08-01T01:27:10;19.90;99.90
26182;DHT22;13927;51.534;11.866;2022-08-01T01:29:56;19.70;99.90
26182;DHT22;13927;51.534;11.866;2022-08-01T01:32:41;19.50;99.90
26182;DHT22;13927;51.534;11.866;2022-08-01T01:35:15;19.40;99.90
26182;DHT22;13927;51.534;11.866;2022-08-01T01:37:47;19.40;99.90
26182;DHT22;13927;51.534;11.866;2022-08-01T01:40:18;19.40;99.90
26182;DHT22;13927;51.534;11.866;2022-08-01T01:42:46;19.40;99.90
26182;DHT22;13927;51.534;11.866;2022-08-01T01:45:13;19.40;99.90
26182;DHT22;13927;51.534;11.866;2022-08-01T01:47:40;19.40;99.90
26182;DHT22;13927;51.534;11.866;2022-08-01T01:50:09;19.50;99.90
26182;DHT22;13927;51.534;11.866;2022-08-01T01:52:37;19.50;99.90
26182;DHT22;13927;51.534;11.866;2022-08-01T01:55:06;19.60;99.90
26182;DHT22;13927;51.534;11.866;2022-08-01T01:57:40;19.70;99.90
26182;DHT22;13927;51.534;11.866;2022-08-01T02:00:09;19.70;99.90
26182;DHT22;13927;51.534;11.866;2022-08-01T02:02:40;19.80;99.90
26182;DHT22;13927;51.534;11.866;2022-08-01T02:05:11;19.80;99.90
26182;DHT22;13927;51.534;11.866;2022-08-01T02:07:39;19.90;99.90
26182;DHT22;13927;51.534;11.866;2022-08-01T02:10:07;20.00;99.90
26182;DHT22;13927;51.534;11.866;2022-08-01T02:12:38;20.00;99.90
26182;DHT22;13927;51.534;11.866;2022-08-01T02:15:09;20.00;99.90
26182;DHT22;13927;51.534;11.866;2022-08-01T02:17:41;20.00;99.90
26182;DHT22;13927;51.534;11.866;2022-08-01T02:20:10;19.90;99.90
26182;DHT22;13927;51.534;11.866;2022-08-01T02:22:46;19.90;99.90
26182;DHT22;13927;51.534;11.866;2022-08-01T02:25:26;19.80;99.90
26182;DHT22;13927;51.534;11.866;2022-08-01T02:28:03;19.80;99.90
26182;DHT22;13927;51.534;11.866;2022-08-01T02:30:35;19.80;99.90
26182;DHT22;13927;51.534;11.866;2022-08-01T02:33:06;19.70;99.90
26182;DHT22;13927;51.534;11.866;2022-08-01T02:35:37;19.70;99.90
26182;DHT22;13927;51.534;11.866;2022-08-01T02:38:05;19.80;99.90
26182;DHT22;13927;51.534;11.866;2022-08-01T02:40:37;19.70;99.90
26182;DHT22;13927;51.534;11.866;2022-08-01T02:43:06;19.80;99.90
26182;DHT22;13927;51.534;11.866;2022-08-01T02:45:43;19.80;99.90
26182;DHT22;13927;51.534;11.866;2022-08-01T02:48:13;19.80;99.90
26182;DHT22;13927;51.534;11.866;2022-08-01T02:50:42;19.90;99.90
26182;DHT22;13927;51.534;11.866;2022-08-01T02:53:12;19.90;99.90
26182;DHT22;13927;51.534;11.866;2022-08-01T02:55:40;19.90;99.90
26182;DHT22;13927;51.534;11.866;2022-08-01T02:58:09;20.00;99.90
26182;DHT22;13927;51.534;11.866;2022-08-01T03:00:39;20.00;99.90
26182;DHT22;13927;51.534;11.866;2022-08-01T03:03:06;20.10;99.90
26182;DHT22;13927;51.534;11.866;2022-08-01T03:05:35;20.20;99.90
26182;DHT22;13927;51.534;11.866;2022-08-01T03:08:02;20.20;99.90
26182;DHT22;13927;51.534;11.866;2022-08-01T03:10:30;20.30;99.90
26182;DHT22;13927;51.534;11.866;2022-08-01T03:12:57;20.30;99.90
26182;DHT22;13927;51.534;11.866;2022-08-01T03:15:27;20.30;99.90
26182;DHT22;13927;51.534;11.866;2022-08-01T03:17:56;20.30;99.90
26182;DHT22;13927;51.534;11.866;2022-08-01T03:20:23;20.30;99.90
26182;DHT22;13927;51.534;11.866;2022-08-01T03:22:51;20.40;99.90
26182;DHT22;13927;51.534;11.866;2022-08-01T03:25:18;20.40;99.90
26182;DHT22;13927;51.534;11.866;2022-08-01T03:27:50;20.40;99.90
26182;DHT22;13927;51.534;11.866;2022-08-01T03:30:22;20.40;99.90
26182;DHT22;13927;51.534;11.866;2022-08-01T03:32:48;20.40;99.90
26182;DHT22;13927;51.534;11.866;2022-08-01T03:35:14;20.40;99.90
26182;DHT22;13927;51.534;11.866;2022-08-01T03:37:46;20.50;99.90
26182;DHT22;13927;51.534;11.866;2022-08-01T03:40:32;20.50;99.90
26182;DHT22;13927;51.534;11.866;2022-08-01T03:43:07;20.50;99.90
26182;DHT22;13927;51.534;11.866;2022-08-01T03:46:04;20.40;99.90
26182;DHT22;13927;51.534;11.866;2022-08-01T03:48:36;20.40;99.90
26182;DHT22;13927;51.534;11.866;2022-08-01T03:51:05;20.40;99.90
26182;DHT22;13927;51.534;11.866;2022-08-01T03:53:33;20.50;99.90
26182;DHT22;13927;51.534;11.866;2022-08-01T03:56:00;20.50;99.90
26182;DHT22;13927;51.534;11.866;2022-08-01T03:58:31;20.50;99.90
26182;DHT22;13927;51.534;11.866;2022-08-01T04:00:57;20.50;99.90
26182;DHT22;13927;51.534;11.866;2022-08-01T04:03:24;20.50;99.90
26182;DHT22;13927;51.534;11.866;2022-08-01T04:05:50;20.50;99.90
26182;DHT22;13927;51.534;11.866;2022-08-01T04:08:15;20.50;99.90
26182;DHT22;13927;51.534;11.866;2022-08-01T04:10:41;20.40;99.90
26182;DHT22;13927;51.534;11.866;2022-08-01T04:13:07;20.50;99.90
26182;DHT22;13927;51.534;11.866;2022-08-01T04:15:33;20.40;99.90
26182;DHT22;13927;51.534;11.866;2022-08-01T04:17:58;20.40;99.90
26182;DHT22;13927;51.534;11.866;2022-08-01T04:20:24;20.50;99.90
26182;DHT22;13927;51.534;11.866;2022-08-01T04:22:50;20.50;99.90
26182;DHT22;13927;51.534;11.866;2022-08-01T04:25:21;20.50;99.90
26182;DHT22;13927;51.534;11.866;2022-08-01T04:27:52;20.60;99.90
26182;DHT22;13927;51.534;11.866;2022-08-01T04:30:26;20.60;99.90
26182;DHT22;13927;51.534;11.866;2022-08-01T04:32:54;20.60;99.90
26182;DHT22;13927;51.534;11.866;2022-08-01T04:35:21;20.70;99.90
26182;DHT22;13927;51.534;11.866;2022-08-01T04:37:48;20.70;99.90
26182;DHT22;13927;51.534;11.866;2022-08-01T04:40:14;20.80;99.90
26182;DHT22;13927;51.534;11.866;2022-08-01T04:42:41;20.80;99.90
26182;DHT22;13927;51.534;11.866;2022-08-01T04:45:08;20.90;99.90
26182;DHT22;13927;51.534;11.866;2022-08-01T04:47:35;20.90;99.90
26182;DHT22;13927;51.534;11.866;2022-08-01T04:50:05;20.90;99.90
26182;DHT22;13927;51.534;11.866;2022-08-01T04:52:36;20.90;99.90
26182;DHT22;13927;51.534;11.866;2022-08-01T04:55:04;20.90;99.90
26182;DHT22;13927;51.534;11.866;2022-08-01T04:57:39;21.00;99.90
26182;DHT22;13927;51.534;11.866;2022-08-01T05:00:07;21.00;99.90
26182;DHT22;13927;51.534;11.866;2022-08-01T05:02:33;21.10;99.90
26182;DHT22;13927;51.534;11.866;2022-08-01T05:04:59;21.10;99.90
26182;DHT22;13927;51.534;11.866;2022-08-01T05:07:25;21.10;99.90
26182;DHT22;13927;51.534;11.866;2022-08-01T05:09:51;21.20;99.90
26182;DHT22;13927;51.534;11.866;2022-08-01T05:12:17;21.20;99.90
26182;DHT22;13927;51.534;11.866;2022-08-01T05:14:43;21.40;99.90
26182;DHT22;13927;51.534;11.866;2022-08-01T05:17:09;21.30;99.90
26182;DHT22;13927;51.534;11.866;2022-08-01T05:19:36;21.40;99.90
26182;DHT22;13927;51.534;11.866;2022-08-01T05:22:04;21.50;99.90
26182;DHT22;13927;51.534;11.866;2022-08-01T05:24:32;21.50;99.90
26182;DHT22;13927;51.534;11.866;2022-08-01T05:26:59;21.50;99.90
26182;DHT22;13927;51.534;11.866;2022-08-01T05:29:26;21.50;99.90
26182;DHT22;13927;51.534;11.866;2022-08-01T05:31:53;21.50;99.90
26182;DHT22;13927;51.534;11.866;2022-08-01T05:34:19;21.50;99.90
26182;DHT22;13927;51.534;11.866;2022-08-01T05:36:46;21.60;99.90
26182;DHT22;13927;51.534;11.866;2022-08-01T05:39:13;21.60;99.90
26182;DHT22;13927;51.534;11.866;2022-08-01T05:41:39;21.60;99.90
26182;DHT22;13927;51.534;11.866;2022-08-01T05:44:05;21.60;99.90
26182;DHT22;13927;51.534;11.866;2022-08-01T05:46:32;21.70;99.90
26182;DHT22;13927;51.534;11.866;2022-08-01T05:49:00;21.80;99.90
26182;DHT22;13927;51.534;11.866;2022-08-01T05:51:26;21.80;99.90
26182;DHT22;13927;51.534;11.866;2022-08-01T05:53:53;21.90;99.90
26182;DHT22;13927;51.534;11.866;2022-08-01T05:56:19;21.90;99.90
26182;DHT22;13927;51.534;11.866;2022-08-01T05:58:46;21.90;99.90
26182;DHT22;13927;51.534;11.866;2022-08-01T06:01:11;21.90;99.90
26182;DHT22;13927;51.534;11.866;2022-08-01T06:03:37;21.90;99.90
26182;DHT22;13927;51.534;11.866;2022-08-01T06:06:03;21.80;99.90
26182;DHT22;13927;51.534;11.866;2022-08-01T06:08:29;21.90;99.90
26182;DHT22;13927;51.534;11.866;2022-08-01T06:10:56;21.90;99.90
26182;DHT22;13927;51.534;11.866;2022-08-01T06:13:22;22.00;99.90
26182;DHT22;13927;51.534;11.866;2022-08-01T06:15:48;22.00;99.90
26182;DHT22;13927;51.534;11.866;2022-08-01T06:18:14;22.00;99.90
26182;DHT22;13927;51.534;11.866;2022-08-01T06:20:40;22.00;99.90
26182;DHT22;13927;51.534;11.866;2022-08-01T06:23:05;22.00;99.90
26182;DHT22;13927;51.534;11.866;2022-08-01T06:25:31;22.00;99.90
26182;DHT22;13927;51.534;11.866;2022-08-01T06:27:58;21.80;99.90
26182;DHT22;13927;51.534;11.866;2022-08-01T06:30:25;21.70;99.90
26182;DHT22;13927;51.534;11.866;2022-08-01T06:32:51;21.60;99.90
26182;DHT22;13927;51.534;11.866;2022-08-01T06:35:17;21.50;99.90
26182;DHT22;13927;51.534;11.866;2022-08-01T06:37:44;21.30;99.90
26182;DHT22;13927;51.534;11.866;2022-08-01T06:40:12;21.00;99.90
26182;DHT22;13927;51.534;11.866;2022-08-01T06:42:38;21.00;99.90
26182;DHT22;13927;51.534;11.866;2022-08-01T06:45:05;20.90;99.90
26182;DHT22;13927;51.534;11.866;2022-08-01T06:47:32;21.00;99.90
26182;DHT22;13927;51.534;11.866;2022-08-01T06:49:58;20.90;99.90
26182;DHT22;13927;51.534;11.866;2022-08-01T06:52:24;21.00;99.90
26182;DHT22;13927;51.534;11.866;2022-08-01T06:54:50;21.10;99.90
26182;DHT22;13927;51.534;11.866;2022-08-01T06:57:16;21.10;99.90
26182;DHT22;13927;51.534;11.866;2022-08-01T06:59:42;21.00;99.90
26182;DHT22;13927;51.534;11.866;2022-08-01T07:02:08;21.00;99.90
26182;DHT22;13927;51.534;11.866;2022-08-01T07:04:34;21.10;99.90
26182;DHT22;13927;51.534;11.866;2022-08-01T07:06:59;21.10;99.90
26182;DHT22;13927;51.534;11.866;2022-08-01T07:09:26;21.20;99.90
26182;DHT22;13927;51.534;11.866;2022-08-01T07:11:52;21.30;99.90
26182;DHT22;13927;51.534;11.866;2022-08-01T07:14:19;21.40;99.90
26182;DHT22;13927;51.534;11.866;2022-08-01T07:16:46;21.60;99.90
26182;DHT22;13927;51.534;11.866;2022-08-01T07:19:12;21.60;99.90
26182;DHT22;13927;51.534;11.866;2022-08-01T07:21:39;21.70;99.90
26182;DHT22;13927;51.534;11.866;2022-08-01T07:24:06;22.00;99.90
26182;DHT22;13927;51.534;11.866;2022-08-01T07:26:32;22.10;99.90
26182;DHT22;13927;51.534;11.866;2022-08-01T07:28:58;22.20;99.90
26182;DHT22;13927;51.534;11.866;2022-08-01T07:31:24;22.20;99.90
26182;DHT22;13927;51.534;11.866;2022-08-01T07:33:50;22.30;99.90
26182;DHT22;13927;51.534;11.866;2022-08-01T07:36:17;22.30;99.90
26182;DHT22;13927;51.534;11.866;2022-08-01T07:38:45;22.50;99.90
26182;DHT22;13927;51.534;11.866;2022-08-01T07:41:11;22.80;99.90
26182;DHT22;13927;51.534;11.866;2022-08-01T07:43:37;22.90;99.90
26182;DHT22;13927;51.534;11.866;2022-08-01T07:46:04;23.00;99.90
26182;DHT22;13927;51.534;11.866;2022-08-01T07:48:30;23.10;99.90
26182;DHT22;13927;51.534;11.866;2022-08-01T07:50:56;23.30;99.90
26182;DHT22;13927;51.534;11.866;2022-08-01T07:53:22;23.50;99.90
26182;DHT22;13927;51.534;11.866;2022-08-01T07:55:48;23.60;99.90
26182;DHT22;13927;51.534;11.866;2022-08-01T07:58:15;23.50;99.90
26182;DHT22;13927;51.534;11.866;2022-08-01T08:00:41;22.90;99.90
26182;DHT22;13927;51.534;11.866;2022-08-01T08:03:07;22.40;99.90
26182;DHT22;13927;51.534;11.866;2022-08-01T08:05:33;22.20;99.90
26182;DHT22;13927;51.534;11.866;2022-08-01T08:08:01;22.10;99.90
26182;DHT22;13927;51.534;11.866;2022-08-01T08:10:30;22.10;99.90
26182;DHT22;13927;51.534;11.866;2022-08-01T08:12:56;22.10;99.90
26182;DHT22;13927;51.534;11.866;2022-08-01T08:15:22;22.10;99.90
26182;DHT22;13927;51.534;11.866;2022-08-01T08:17:48;22.00;99.90
26182;DHT22;13927;51.534;11.866;2022-08-01T08:20:14;22.00;99.90
26182;DHT22;13927;51.534;11.866;2022-08-01T08:22:39;22.00;99.90
26182;DHT22;13927;51.534;11.866;2022-08-01T08:25:07;21.80;99.90
26182;DHT22;13927;51.534;11.866;2022-08-01T08:27:33;22.00;99.90
26182;DHT22;13927;51.534;11.866;2022-08-01T08:29:59;22.00;99.90
26182;DHT22;13927;51.534;11.866;2022-08-01T08:32:24;22.10;99.90
26182;DHT22;13927;51.534;11.866;2022-08-01T08:34:50;22.30;99.90
26182;DHT22;13927;51.534;11.866;2022-08-01T08:37:16;22.60;99.90
26182;DHT22;13927;51.534;11.866;2022-08-01T08:39:42;22.90;99.90
26182;DHT22;13927;51.534;11.866;2022-08-01T08:42:10;23.10;99.90
26182;DHT22;13927;51.534;11.866;2022-08-01T08:44:37;23.10;99.90
26182;DHT22;13927;51.534;11.866;2022-08-01T08:47:05;23.00;99.90
26182;DHT22;13927;51.534;11.866;2022-08-01T08:49:31;22.90;99.90
26182;DHT22;13927;51.534;11.866;2022-08-01T08:52:01;23.10;99.90
26182;DHT22;13927;51.534;11.866;2022-08-01T08:54:29;23.20;99.90
26182;DHT22;13927;51.534;11.866;2022-08-01T08:56:56;23.30;99.90
26182;DHT22;13927;51.534;11.866;2022-08-01T08:59:22;23.40;99.90
26182;DHT22;13927;51.534;11.866;2022-08-01T09:01:51;23.40;99.90
26182;DHT22;13927;51.534;11.866;2022-08-01T09:04:18;23.60;99.90
26182;DHT22;13927;51.534;11.866;2022-08-01T09:06:46;23.50;99.90
26182;DHT22;13927;51.534;11.866;2022-08-01T09:09:12;23.50;99.90
26182;DHT22;13927;51.534;11.866;2022-08-01T09:11:38;23.40;99.90
26182;DHT22;13927;51.534;11.866;2022-08-01T09:14:18;23.50;99.90
26182;DHT22;13927;51.534;11.866;2022-08-01T09:17:04;23.50;99.90
26182;DHT22;13927;51.534;11.866;2022-08-01T09:19:38;23.50;99.90
26182;DHT22;13927;51.534;11.866;2022-08-01T09:22:10;23.60;99.90
26182;DHT22;13927;51.534;11.866;2022-08-01T09:24:39;23.70;99.90
26182;DHT22;13927;51.534;11.866;2022-08-01T09:27:21;23.70;99.90
26182;DHT22;13927;51.534;11.866;2022-08-01T09:29:52;24.10;99.90
26182;DHT22;13927;51.534;11.866;2022-08-01T09:32:20;24.40;99.90
26182;DHT22;13927;51.534;11.866;2022-08-01T09:34:46;24.50;99.90
26182;DHT22;13927;51.534;11.866;2022-08-01T09:37:12;24.70;99.90
26182;DHT22;13927;51.534;11.866;2022-08-01T09:39:42;24.90;99.90
26182;DHT22;13927;51.534;11.866;2022-08-01T09:42:25;24.90;99.90
26182;DHT22;13927;51.534;11.866;2022-08-01T09:44:51;24.80;99.90
26182;DHT22;13927;51.534;11.866;2022-08-01T09:47:18;24.70;99.90
26182;DHT22;13927;51.534;11.866;2022-08-01T09:49:53;24.70;99.90
26182;DHT22;13927;51.534;11.866;2022-08-01T09:52:23;24.50;99.90
26182;DHT22;13927;51.534;11.866;2022-08-01T09:55:01;24.20;99.90
26182;DHT22;13927;51.534;11.866;2022-08-01T09:57:29;24.10;99.90
26182;DHT22;13927;51.534;11.866;2022-08-01T09:59:57;24.00;99.90
26182;DHT22;13927;51.534;11.866;2022-08-01T10:02:38;24.10;99.90
26182;DHT22;13927;51.534;11.866;2022-08-01T10:05:07;24.00;99.90
26182;DHT22;13927;51.534;11.866;2022-08-01T10:07:35;24.20;99.90
26182;DHT22;13927;51.534;11.866;2022-08-01T10:10:13;24.50;99.90
26182;DHT22;13927;51.534;11.866;2022-08-01T10:12:40;24.70;99.90
26182;DHT22;13927;51.534;11.866;2022-08-01T10:15:08;24.90;99.90
26182;DHT22;13927;51.534;11.866;2022-08-01T10:17:34;25.00;99.90
26182;DHT22;13927;51.534;11.866;2022-08-01T10:20:03;25.10;99.90
26182;DHT22;13927;51.534;11.866;2022-08-01T10:22:30;24.90;99.90
26182;DHT22;13927;51.534;11.866;2022-08-01T10:24:57;24.90;99.90
26182;DHT22;13927;51.534;11.866;2022-08-01T10:27:29;25.00;99.90
26182;DHT22;13927;51.534;11.866;2022-08-01T10:29:59;25.00;99.90
26182;DHT22;13927;51.534;11.866;2022-08-01T10:32:32;25.10;99.90
26182;DHT22;13927;51.534;11.866;2022-08-01T10:34:59;25.30;99.90
26182;DHT22;13927;51.534;11.866;2022-08-01T10:37:26;25.40;99.90
26182;DHT22;13927;51.534;11.866;2022-08-01T10:39:53;25.50;99.90
26182;DHT22;13927;51.534;11.866;2022-08-01T10:42:19;25.40;99.90
26182;DHT22;13927;51.534;11.866;2022-08-01T10:44:46;25.40;99.90
26182;DHT22;13927;51.534;11.866;2022-08-01T10:47:14;25.40;99.90
26182;DHT22;13927;51.534;11.866;2022-08-01T10:53:20;25.20;99.90
26182;DHT22;13927;51.534;11.866;2022-08-01T10:58:30;25.10;99.90
26182;DHT22;13927;51.534;11.866;2022-08-01T11:01:17;25.10;99.90
26182;DHT22;13927;51.534;11.866;2022-08-01T11:09:44;24.40;99.90
26182;DHT22;13927;51.534;11.866;2022-08-01T11:12:03;24.50;99.90
26182;DHT22;13927;51.534;11.866;2022-08-01T11:17:43;24.50;99.90
26182;DHT22;13927;51.534;11.866;2022-08-01T11:20:23;24.80;99.90
26182;DHT22;13927;51.534;11.866;2022-08-01T11:38:41;25.30;99.90
26182;DHT22;13927;51.534;11.866;2022-08-01T11:41:10;25.30;99.90
26182;DHT22;13927;51.534;11.866;2022-08-01T11:44:04;25.20;99.90
26182;DHT22;13927;51.534;11.866;2022-08-01T11:46:47;24.90;99.90
26182;DHT22;13927;51.534;11.866;2022-08-01T11:57:29;25.10;99.90
26182;DHT22;13927;51.534;11.866;2022-08-01T11:59:59;25.30;99.90
26182;DHT22;13927;51.534;11.866;2022-08-01T12:02:33;26.00;99.90
26182;DHT22;13927;51.534;11.866;2022-08-01T12:05:07;26.50;99.90
26182;DHT22;13927;51.534;11.866;2022-08-01T12:07:39;26.60;99.90
26182;DHT22;13927;51.534;11.866;2022-08-01T12:10:10;26.70;99.90
26182;DHT22;13927;51.534;11.866;2022-08-01T12:12:45;26.50;99.90
26182;DHT22;13927;51.534;11.866;2022-08-01T12:15:16;26.70;99.90
26182;DHT22;13927;51.534;11.866;2022-08-01T12:18:06;27.30;99.90
26182;DHT22;13927;51.534;11.866;2022-08-01T12:20:35;27.80;99.90
26182;DHT22;13927;51.534;11.866;2022-08-01T12:23:04;27.50;99.90
26182;DHT22;13927;51.534;11.866;2022-08-01T12:25:35;27.20;99.90
26182;DHT22;13927;51.534;11.866;2022-08-01T12:28:06;27.10;99.90
26182;DHT22;13927;51.534;11.866;2022-08-01T12:30:35;27.40;99.90
26182;DHT22;13927;51.534;11.866;2022-08-01T12:33:06;27.70;99.90
26182;DHT22;13927;51.534;11.866;2022-08-01T12:35:34;27.30;99.90
26182;DHT22;13927;51.534;11.866;2022-08-01T12:38:05;27.20;99.90
26182;DHT22;13927;51.534;11.866;2022-08-01T12:40:35;27.00;99.90
26182;DHT22;13927;51.534;11.866;2022-08-01T12:43:04;26.80;99.90
26182;DHT22;13927;51.534;11.866;2022-08-01T12:45:34;26.60;99.90
26182;DHT22;13927;51.534;11.866;2022-08-01T12:48:14;26.40;99.90
26182;DHT22;13927;51.534;11.866;2022-08-01T12:50:43;26.40;99.90
26182;DHT22;13927;51.534;11.866;2022-08-01T12:53:11;26.50;99.90
26182;DHT22;13927;51.534;11.866;2022-08-01T12:55:50;26.60;99.90
26182;DHT22;13927;51.534;11.866;2022-08-01T12:58:18;26.50;99.90
26182;DHT22;13927;51.534;11.866;2022-08-01T13:00:46;26.70;99.90
26182;DHT22;13927;51.534;11.866;2022-08-01T13:03:14;26.60;99.90
26182;DHT22;13927;51.534;11.866;2022-08-01T13:05:51;26.40;99.90
26182;DHT22;13927;51.534;11.866;2022-08-01T13:08:25;26.60;99.90
26182;DHT22;13927;51.534;11.866;2022-08-01T13:16:13;26.40;99.90
26182;DHT22;13927;51.534;11.866;2022-08-01T13:18:39;26.20;99.90
26182;DHT22;13927;51.534;11.866;2022-08-01T13:23:41;25.80;99.90
26182;DHT22;13927;51.534;11.866;2022-08-01T13:26:47;25.80;99.90
26182;DHT22;13927;51.534;11.866;2022-08-01T13:29:33;25.80;99.90
26182;DHT22;13927;51.534;11.866;2022-08-01T13:32:17;26.00;99.90
26182;DHT22;13927;51.534;11.866;2022-08-01T13:34:44;26.20;99.90
26182;DHT22;13927;51.534;11.866;2022-08-01T13:37:09;26.30;99.90
26182;DHT22;13927;51.534;11.866;2022-08-01T13:39:35;26.30;99.90
26182;DHT22;13927;51.534;11.866;2022-08-01T13:42:08;26.40;99.90
26182;DHT22;13927;51.534;11.866;2022-08-01T13:44:40;26.30;99.90
26182;DHT22;13927;51.534;11.866;2022-08-01T13:47:06;26.20;99.90
26182;DHT22;13927;51.534;11.866;2022-08-01T13:49:32;26.40;99.90
26182;DHT22;13927;51.534;11.866;2022-08-01T13:51:59;26.60;99.90
26182;DHT22;13927;51.534;11.866;2022-08-01T13:54:26;26.50;99.90
26182;DHT22;13927;51.534;11.866;2022-08-01T13:56:52;26.60;99.90
26182;DHT22;13927;51.534;11.866;2022-08-01T13:59:19;26.90;99.90
26182;DHT22;13927;51.534;11.866;2022-08-01T14:01:45;27.10;99.90
26182;DHT22;13927;51.534;11.866;2022-08-01T14:04:11;27.30;99.90
26182;DHT22;13927;51.534;11.866;2022-08-01T14:06:37;27.30;99.90
26182;DHT22;13927;51.534;11.866;2022-08-01T14:09:04;27.50;99.90
26182;DHT22;13927;51.534;11.866;2022-08-01T14:11:30;27.60;99.90
26182;DHT22;13927;51.534;11.866;2022-08-01T14:13:56;27.50;99.90
26182;DHT22;13927;51.534;11.866;2022-08-01T14:16:23;27.60;99.90
26182;DHT22;13927;51.534;11.866;2022-08-01T14:18:48;27.60;99.90
26182;DHT22;13927;51.534;11.866;2022-08-01T14:21:14;27.70;99.90
26182;DHT22;13927;51.534;11.866;2022-08-01T14:23:40;27.60;99.90
26182;DHT22;13927;51.534;11.866;2022-08-01T14:26:08;27.60;99.90
26182;DHT22;13927;51.534;11.866;2022-08-01T14:28:35;27.70;99.90
26182;DHT22;13927;51.534;11.866;2022-08-01T14:31:03;27.60;99.90
26182;DHT22;13927;51.534;11.866;2022-08-01T14:33:31;27.50;99.90
26182;DHT22;13927;51.534;11.866;2022-08-01T14:35:57;27.50;99.90
26182;DHT22;13927;51.534;11.866;2022-08-01T14:38:23;27.60;99.90
26182;DHT22;13927;51.534;11.866;2022-08-01T14:40:49;27.60;99.90
26182;DHT22;13927;51.534;11.866;2022-08-01T14:43:18;27.60;99.90
26182;DHT22;13927;51.534;11.866;2022-08-01T14:45:44;27.50;99.90
26182;DHT22;13927;51.534;11.866;2022-08-01T14:48:14;27.30;99.90
26182;DHT22;13927;51.534;11.866;2022-08-01T14:50:41;27.10;99.90
26182;DHT22;13927;51.534;11.866;2022-08-01T14:53:06;27.10;99.90
26182;DHT22;13927;51.534;11.866;2022-08-01T14:55:32;27.20;99.90
26182;DHT22;13927;51.534;11.866;2022-08-01T14:57:58;27.00;99.90
26182;DHT22;13927;51.534;11.866;2022-08-01T15:00:23;27.10;99.90
26182;DHT22;13927;51.534;11.866;2022-08-01T15:02:50;27.10;99.90
26182;DHT22;13927;51.534;11.866;2022-08-01T15:05:15;27.10;99.90
26182;DHT22;13927;51.534;11.866;2022-08-01T15:07:41;27.10;99.90
26182;DHT22;13927;51.534;11.866;2022-08-01T15:10:07;27.00;99.90
26182;DHT22;13927;51.534;11.866;2022-08-01T15:12:34;27.00;99.90
26182;DHT22;13927;51.534;11.866;2022-08-01T15:15:00;27.10;99.90
26182;DHT22;13927;51.534;11.866;2022-08-01T15:17:27;27.10;99.90
26182;DHT22;13927;51.534;11.866;2022-08-01T15:20:03;27.00;99.90
26182;DHT22;13927;51.534;11.866;2022-08-01T15:22:30;26.90;99.90
26182;DHT22;13927;51.534;11.866;2022-08-01T15:24:58;26.80;99.90
26182;DHT22;13927;51.534;11.866;2022-08-01T15:27:25;26.50;99.90
26182;DHT22;13927;51.534;11.866;2022-08-01T15:29:52;26.50;99.90
26182;DHT22;13927;51.534;11.866;2022-08-01T15:32:18;26.60;99.90
26182;DHT22;13927;51.534;11.866;2022-08-01T15:34:44;26.60;99.90
26182;DHT22;13927;51.534;11.866;2022-08-01T15:37:10;26.60;99.90
26182;DHT22;13927;51.534;11.866;2022-08-01T15:39:37;26.60;99.90
26182;DHT22;13927;51.534;11.866;2022-08-01T15:42:08;26.60;99.90
26182;DHT22;13927;51.534;11.866;2022-08-01T15:44:36;26.50;99.90
26182;DHT22;13927;51.534;11.866;2022-08-01T15:47:02;26.60;99.90
26182;DHT22;13927;51.534;11.866;2022-08-01T15:49:29;26.60;99.90
26182;DHT22;13927;51.534;11.866;2022-08-01T15:51:54;26.60;99.90
26182;DHT22;13927;51.534;11.866;2022-08-01T15:54:20;26.50;99.90
26182;DHT22;13927;51.534;11.866;2022-08-01T15:56:46;26.40;99.90
26182;DHT22;13927;51.534;11.866;2022-08-01T15:59:11;26.50;99.90
26182;DHT22;13927;51.534;11.866;2022-08-01T16:01:37;26.70;99.90
26182;DHT22;13927;51.534;11.866;2022-08-01T16:04:04;26.60;99.90
26182;DHT22;13927;51.534;11.866;2022-08-01T16:06:30;26.50;99.90
26182;DHT22;13927;51.534;11.866;2022-08-01T16:08:56;26.50;99.90
26182;DHT22;13927;51.534;11.866;2022-08-01T16:11:22;26.50;99.90
26182;DHT22;13927;51.534;11.866;2022-08-01T16:13:51;26.40;99.90
26182;DHT22;13927;51.534;11.866;2022-08-01T16:16:17;26.30;99.90
26182;DHT22;13927;51.534;11.866;2022-08-01T16:18:43;26.30;99.90